Terminal Aerodrome Forecast
Issued by NWS

Home | Current Version | Previous Version | Text Only | Print | Product List | Glossary On
Versions: 1 2 3 4 5 6 7 8 9 10 11 12 13 14 15 16 17 18 19 20 21 22 23 24
416
FTUS43 KGLD 270004 AAA
TAFMCK
TAF AMD
KMCK 270004Z 2700/2724 36014KT P6SM VCTS FEW030CB BKN050
      TEMPO 2701/2703 TSRA SCT020 BKN030CB
     FM270600 13005KT P6SM FEW003 SCT120
      TEMPO 2710/2714 3SM BR BKN003
     FM271600 16004KT P6SM SCT110
     FM272100 16008KT P6SM SCT060 BKN150=

USA.gov is the U.S. government's official web portal to all federal, state and local government web resources and services.